Time;durP1;ratioP1;P1;durP2;ratioP2;P2;SDS_P1;SDS_P2;PMS_P1;PMS_P2;Temp;Humidity;BMP_temperature;BMP_pressure;BME280_temperature;BME280_humidity;BME280_pressure;Samples;Min_cycle;Max_cycle;Signal;HPM_P1;HPM_P2
2023/08/13 00:00:16;;;;;;;13.70;5.40;;;18.40;99.90;;;;;;5044530;28;20179;-55
2023/08/13 00:02:43;;;;;;;8.70;5.77;;;18.40;99.90;;;;;;5042638;28;20327;-55
2023/08/13 00:05:09;;;;;;;9.60;6.20;;;18.40;99.90;;;;;;5038249;28;20481;-56
2023/08/13 00:07:35;;;;;;;9.20;5.57;;;18.30;99.90;;;;;;5038120;28;20499;-54
2023/08/13 00:10:02;;;;;;;11.73;5.60;;;18.30;99.90;;;;;;5042123;28;20426;-55
2023/08/13 00:12:27;;;;;;;9.47;5.97;;;18.30;99.90;;;;;;5044434;28;20425;-55
2023/08/13 00:14:53;;;;;;;10.80;5.07;;;18.20;99.90;;;;;;5044441;28;20440;-54
2023/08/13 00:17:18;;;;;;;8.40;5.60;;;18.20;99.90;;;;;;5040071;28;22217;-55
2023/08/13 00:19:44;;;;;;;12.90;5.80;;;18.20;99.90;;;;;;5041544;28;20230;-56
2023/08/13 00:22:10;;;;;;;7.03;5.50;;;18.20;99.90;;;;;;5042032;28;20175;-54
2023/08/13 00:24:35;;;;;;;10.90;5.90;;;18.20;99.90;;;;;;5042816;28;20246;-55
2023/08/13 00:27:01;;;;;;;8.50;5.97;;;18.20;99.90;;;;;;5038132;28;20584;-55
2023/08/13 00:29:27;;;;;;;12.80;6.40;;;18.10;99.90;;;;;;5038178;28;20175;-54
2023/08/13 00:31:55;;;;;;;7.73;5.60;;;18.10;99.90;;;;;;5043202;28;20183;-54
2023/08/13 00:34:21;;;;;;;5.83;4.80;;;18.10;99.90;;;;;;5041493;28;20448;-56
2023/08/13 00:36:46;;;;;;;8.67;5.63;;;18.10;99.90;;;;;;5043448;28;20456;-55
2023/08/13 00:39:12;;;;;;;8.03;6.00;;;18.10;99.90;;;;;;5037458;28;20455;-54
2023/08/13 00:41:38;;;;;;;9.43;5.13;;;18.00;99.90;;;;;;5046234;28;20189;-55
2023/08/13 00:44:03;;;;;;;7.80;5.33;;;18.00;99.90;;;;;;5039452;28;20610;-57
2023/08/13 00:46:29;;;;;;;8.60;5.83;;;18.00;99.90;;;;;;5033449;28;20214;-55
2023/08/13 00:48:58;;;;;;;8.47;5.70;;;17.90;99.90;;;;;;5042630;28;20636;-54
2023/08/13 00:51:24;;;;;;;6.30;4.50;;;17.90;99.90;;;;;;5045291;28;20179;-53
2023/08/13 00:53:50;;;;;;;10.00;5.00;;;17.90;99.90;;;;;;5041950;28;20449;-54
2023/08/13 00:56:16;;;;;;;6.00;5.40;;;17.80;99.90;;;;;;5041405;28;20441;-55
2023/08/13 00:58:42;;;;;;;7.97;5.60;;;17.80;99.90;;;;;;5045532;28;20505;-55
2023/08/13 01:01:09;;;;;;;10.33;5.67;;;17.80;99.90;;;;;;5042943;28;20242;-55
2023/08/13 01:03:36;;;;;;;7.37;5.37;;;17.80;99.90;;;;;;5039479;28;20495;-55
2023/08/13 01:06:29;;;;;;;8.70;5.23;;;17.70;99.90;;;;;;5046492;28;20514;-54
2023/08/13 01:09:26;;;;;;;7.43;5.60;;;17.70;99.90;;;;;;5048321;28;20429;-55
2023/08/13 01:12:15;;;;;;;9.20;5.10;;;17.70;99.90;;;;;;5042546;28;20418;-55
2023/08/13 01:15:00;;;;;;;7.40;5.43;;;17.70;99.90;;;;;;5044858;28;20466;-55
2023/08/13 01:17:27;;;;;;;13.43;6.17;;;17.70;99.90;;;;;;5041845;28;20444;-56
2023/08/13 01:19:53;;;;;;;10.00;5.57;;;17.60;99.90;;;;;;5042988;28;20528;-55
2023/08/13 01:22:27;;;;;;;8.10;5.40;;;17.60;99.90;;;;;;5046726;28;20536;-55
2023/08/13 01:24:53;;;;;;;11.53;6.23;;;17.60;99.90;;;;;;5045117;28;20180;-55
2023/08/13 01:27:31;;;;;;;8.67;6.13;;;17.60;99.90;;;;;;5040780;28;21294;-54
2023/08/13 01:30:26;;;;;;;11.00;6.30;;;17.60;99.90;;;;;;5041612;28;20515;-55
2023/08/13 01:32:59;;;;;;;8.03;5.20;;;17.60;99.90;;;;;;5041510;28;20961;-55
2023/08/13 01:35:26;;;;;;;8.97;6.10;;;17.60;99.90;;;;;;5035196;28;20456;-55
2023/08/13 01:37:52;;;;;;;11.30;6.30;;;17.60;99.90;;;;;;5043866;28;20421;-55
2023/08/13 01:40:19;;;;;;;8.97;6.17;;;17.70;99.90;;;;;;5046237;28;20517;-55
2023/08/13 01:42:44;;;;;;;6.63;5.20;;;17.60;99.90;;;;;;5045119;28;20529;-54
2023/08/13 01:45:10;;;;;;;10.93;5.20;;;17.60;99.90;;;;;;5047588;28;20528;-55
2023/08/13 01:47:35;;;;;;;6.50;5.40;;;17.60;99.90;;;;;;5040764;28;20726;-55
2023/08/13 01:50:01;;;;;;;10.73;5.67;;;17.60;99.90;;;;;;5037725;28;21133;-53
2023/08/13 01:52:27;;;;;;;7.93;5.40;;;17.60;99.90;;;;;;5044750;28;20604;-54
2023/08/13 01:54:53;;;;;;;11.80;5.37;;;17.60;99.90;;;;;;5043833;28;20591;-55
2023/08/13 01:57:18;;;;;;;5.70;5.10;;;17.60;99.90;;;;;;5041481;28;20277;-55
2023/08/13 01:59:44;;;;;;;8.90;5.67;;;17.50;99.90;;;;;;5042538;28;20516;-55
2023/08/13 02:02:09;;;;;;;10.53;5.53;;;17.50;99.90;;;;;;5042176;28;20576;-56
2023/08/13 02:04:35;;;;;;;8.23;5.77;;;17.50;99.90;;;;;;5035041;28;20192;-54
2023/08/13 02:07:01;;;;;;;8.93;5.90;;;17.40;99.90;;;;;;5037380;28;20564;-55
2023/08/13 02:09:26;;;;;;;9.50;5.20;;;17.40;99.90;;;;;;5042959;28;20685;-54
2023/08/13 02:11:52;;;;;;;6.37;5.13;;;17.40;99.90;;;;;;5038760;28;20241;-54
2023/08/13 02:14:17;;;;;;;7.93;5.30;;;17.40;99.90;;;;;;5038848;28;20171;-56
2023/08/13 02:16:43;;;;;;;9.00;5.50;;;17.40;99.90;;;;;;5039723;28;20202;-56
2023/08/13 02:19:08;;;;;;;7.00;5.43;;;17.40;99.90;;;;;;5042673;28;20652;-54
2023/08/13 02:21:34;;;;;;;8.97;5.40;;;17.40;99.90;;;;;;5043183;28;20241;-59
2023/08/13 02:24:00;;;;;;;7.80;5.77;;;17.40;99.90;;;;;;5038437;28;20262;-56
2023/08/13 02:26:25;;;;;;;8.23;6.10;;;17.40;99.90;;;;;;5036280;28;20210;-55
2023/08/13 02:28:51;;;;;;;6.23;5.60;;;17.40;99.90;;;;;;5039664;28;20234;-57
2023/08/13 02:31:16;;;;;;;6.93;5.50;;;17.40;99.90;;;;;;5036033;28;20254;-54
2023/08/13 02:33:42;;;;;;;6.33;5.17;;;17.30;99.90;;;;;;5036835;28;20221;-53
2023/08/13 02:36:07;;;;;;;8.10;5.37;;;17.30;99.90;;;;;;5040426;28;20194;-54
2023/08/13 02:38:33;;;;;;;8.57;5.60;;;17.30;99.90;;;;;;5043068;28;20190;-57
2023/08/13 02:40:59;;;;;;;6.77;5.17;;;17.30;99.90;;;;;;5038334;28;20175;-56
2023/08/13 02:43:33;;;;;;;16.77;5.77;;;17.30;99.90;;;;;;5039431;28;20234;-57
2023/08/13 02:45:58;;;;;;;6.93;5.70;;;17.30;99.90;;;;;;5032862;28;20199;-54
2023/08/13 02:48:24;;;;;;;7.40;6.10;;;17.30;99.90;;;;;;5031393;28;20497;-52
2023/08/13 02:50:49;;;;;;;9.07;5.30;;;17.30;99.90;;;;;;5044988;28;20171;-52
2023/08/13 02:53:15;;;;;;;6.57;5.40;;;17.30;99.90;;;;;;5039535;28;20179;-53
2023/08/13 02:55:40;;;;;;;8.30;5.87;;;17.40;99.90;;;;;;5041603;28;20281;-54
2023/08/13 02:58:06;;;;;;;5.70;5.17;;;17.40;99.90;;;;;;5032883;28;20178;-53
2023/08/13 03:00:32;;;;;;;6.47;5.00;;;17.40;99.90;;;;;;5037320;28;20206;-53
2023/08/13 03:02:57;;;;;;;6.90;5.50;;;17.40;99.90;;;;;;5032259;28;20644;-53
2023/08/13 03:05:23;;;;;;;6.00;5.23;;;17.40;99.90;;;;;;5045111;28;20202;-53
2023/08/13 03:07:48;;;;;;;7.50;5.60;;;17.30;99.90;;;;;;5035771;28;20203;-52
2023/08/13 03:10:14;;;;;;;8.57;5.57;;;17.40;99.90;;;;;;5042812;28;20182;-53
2023/08/13 03:12:39;;;;;;;7.47;5.67;;;17.40;99.90;;;;;;5036525;28;21013;-53
2023/08/13 03:15:06;;;;;;;7.43;5.10;;;17.40;99.90;;;;;;5040514;28;20196;-53
2023/08/13 03:17:31;;;;;;;7.13;5.70;;;17.40;99.90;;;;;;5043324;28;20179;-52
2023/08/13 03:19:58;;;;;;;8.80;5.63;;;17.50;99.90;;;;;;5040890;28;20964;-52
2023/08/13 03:22:24;;;;;;;9.87;4.83;;;17.40;99.90;;;;;;5045366;28;20600;-54
2023/08/13 03:24:50;;;;;;;7.80;5.97;;;17.50;99.90;;;;;;5044025;28;20434;-58
2023/08/13 03:27:15;;;;;;;9.07;5.83;;;17.50;99.90;;;;;;5042085;28;20203;-53
2023/08/13 03:29:41;;;;;;;14.20;5.30;;;17.50;99.90;;;;;;5042374;28;20542;-53
2023/08/13 03:32:06;;;;;;;6.70;5.00;;;17.50;99.90;;;;;;5043986;28;20221;-53
2023/08/13 03:34:32;;;;;;;6.27;4.97;;;17.50;99.90;;;;;;5040583;28;20171;-53
2023/08/13 03:36:57;;;;;;;9.97;5.27;;;17.50;99.90;;;;;;5042610;28;20223;-53
2023/08/13 03:39:23;;;;;;;12.13;5.73;;;17.50;99.90;;;;;;5038490;28;20210;-53
2023/08/13 03:41:49;;;;;;;10.43;5.20;;;17.50;99.90;;;;;;5045026;28;20295;-53
2023/08/13 03:44:14;;;;;;;7.27;5.30;;;17.40;99.90;;;;;;5037060;28;20180;-53
2023/08/13 03:46:40;;;;;;;5.43;4.90;;;17.40;99.90;;;;;;5037811;28;20208;-53
2023/08/13 03:49:05;;;;;;;6.97;5.30;;;17.40;99.90;;;;;;5043390;28;20541;-53
2023/08/13 03:51:31;;;;;;;10.37;5.97;;;17.30;99.90;;;;;;5042321;28;20175;-52
2023/08/13 03:53:56;;;;;;;7.17;5.50;;;17.30;99.90;;;;;;5036104;28;20191;-53
2023/08/13 03:56:24;;;;;;;7.40;5.53;;;17.30;99.90;;;;;;5038469;28;20197;-53
2023/08/13 03:58:50;;;;;;;7.50;5.50;;;17.20;99.90;;;;;;5042699;28;20183;-53
2023/08/13 04:01:16;;;;;;;11.30;6.30;;;17.20;99.90;;;;;;5045908;28;20437;-53
2023/08/13 04:03:42;;;;;;;8.80;6.20;;;17.20;99.90;;;;;;5028840;28;20195;-53
2023/08/13 04:06:07;;;;;;;6.60;4.60;;;17.20;99.90;;;;;;5023240;28;20453;-54
2023/08/13 04:08:35;;;;;;;8.27;5.53;;;17.20;99.90;;;;;;5025058;28;20582;-54
2023/08/13 04:11:01;;;;;;;9.63;5.87;;;17.20;99.90;;;;;;5024325;28;20172;-57
2023/08/13 04:13:26;;;;;;;9.47;5.00;;;17.20;99.90;;;;;;5038373;28;20921;-56
2023/08/13 04:15:52;;;;;;;8.10;6.13;;;17.20;99.90;;;;;;5042347;28;20630;-57
2023/08/13 04:18:18;;;;;;;7.63;4.93;;;17.20;99.90;;;;;;5036877;28;20305;-54
2023/08/13 04:20:43;;;;;;;12.00;6.17;;;17.20;99.90;;;;;;5041152;28;20187;-55
2023/08/13 04:23:09;;;;;;;8.30;5.80;;;17.20;99.90;;;;;;5038723;28;20172;-54
2023/08/13 04:25:34;;;;;;;10.33;5.77;;;17.10;99.90;;;;;;5038434;28;20550;-54
2023/08/13 04:28:00;;;;;;;8.30;5.40;;;17.10;99.90;;;;;;5034973;28;20187;-54
2023/08/13 04:30:26;;;;;;;7.20;5.80;;;17.10;99.90;;;;;;5033026;28;20250;-55
2023/08/13 04:32:53;;;;;;;6.27;5.50;;;17.10;99.90;;;;;;5030184;28;20819;-56
2023/08/13 04:35:20;;;;;;;7.13;5.87;;;17.10;99.90;;;;;;5028750;28;20195;-54
2023/08/13 04:37:45;;;;;;;7.03;5.30;;;17.10;99.90;;;;;;5035183;28;20426;-56
2023/08/13 04:40:11;;;;;;;7.00;5.70;;;17.10;99.90;;;;;;5036000;28;20426;-55
2023/08/13 04:42:37;;;;;;;10.13;6.20;;;17.10;99.90;;;;;;5026213;28;21898;-54
2023/08/13 04:45:02;;;;;;;14.40;5.57;;;17.10;99.90;;;;;;5032791;28;20265;-56
2023/08/13 04:47:28;;;;;;;19.17;5.60;;;17.10;99.90;;;;;;5033796;28;20210;-55
2023/08/13 04:49:54;;;;;;;8.53;6.17;;;17.10;99.90;;;;;;5032607;28;20187;-55
2023/08/13 04:52:19;;;;;;;7.60;5.10;;;17.20;99.90;;;;;;5032941;28;20175;-56
2023/08/13 04:54:46;;;;;;;7.63;5.97;;;17.20;99.90;;;;;;5029765;28;20547;-55
2023/08/13 04:57:12;;;;;;;6.73;6.03;;;17.20;99.90;;;;;;5035116;28;20236;-56
2023/08/13 04:59:37;;;;;;;7.17;5.87;;;17.30;99.90;;;;;;5031505;28;20446;-56
2023/08/13 05:02:03;;;;;;;10.60;6.27;;;17.30;99.90;;;;;;5034866;28;20183;-57
2023/08/13 05:04:29;;;;;;;7.73;5.83;;;17.40;99.90;;;;;;5034588;28;20221;-55
2023/08/13 05:06:54;;;;;;;5.87;5.30;;;17.40;99.90;;;;;;5036430;28;20207;-56
2023/08/13 05:09:20;;;;;;;7.90;5.50;;;17.40;99.90;;;;;;5028589;28;20182;-56
2023/08/13 05:11:45;;;;;;;9.50;6.17;;;17.40;99.90;;;;;;5026289;28;20171;-56
2023/08/13 05:14:11;;;;;;;7.27;5.57;;;17.50;99.90;;;;;;5030905;28;20163;-55
2023/08/13 05:16:37;;;;;;;9.43;5.47;;;17.50;99.90;;;;;;5030065;28;20199;-56
2023/08/13 05:19:03;;;;;;;8.73;5.67;;;17.60;99.90;;;;;;5027597;28;20641;-55
2023/08/13 05:21:28;;;;;;;7.03;5.67;;;17.60;99.90;;;;;;5032469;28;20183;-56
2023/08/13 05:23:54;;;;;;;16.63;5.50;;;17.60;99.90;;;;;;5029264;28;20425;-56
2023/08/13 05:26:20;;;;;;;7.20;5.90;;;17.60;99.90;;;;;;5028366;28;20207;-56
2023/08/13 05:28:46;;;;;;;7.17;5.87;;;17.60;99.90;;;;;;5025957;28;20203;-57
2023/08/13 05:31:11;;;;;;;8.27;5.53;;;17.60;99.90;;;;;;5027173;28;20175;-57
2023/08/13 05:33:37;;;;;;;9.00;5.80;;;17.60;99.90;;;;;;5032688;28;20651;-55
2023/08/13 05:36:03;;;;;;;9.07;6.47;;;17.70;99.90;;;;;;5030907;28;20258;-57
2023/08/13 05:38:30;;;;;;;6.50;5.13;;;17.70;99.90;;;;;;5029986;28;20187;-56
2023/08/13 05:40:56;;;;;;;11.33;6.60;;;17.80;99.90;;;;;;5026930;28;20678;-55
2023/08/13 05:43:21;;;;;;;9.83;6.07;;;17.80;99.90;;;;;;5025024;28;20434;-57
2023/08/13 05:45:47;;;;;;;6.47;5.40;;;17.80;99.90;;;;;;5024615;28;20710;-56
2023/08/13 05:48:13;;;;;;;11.40;6.37;;;17.90;99.90;;;;;;5031115;28;20199;-56
2023/08/13 05:50:38;;;;;;;9.00;6.10;;;17.90;99.90;;;;;;5032211;28;20194;-56
2023/08/13 05:53:05;;;;;;;9.67;6.67;;;17.90;99.90;;;;;;5033417;28;20175;-56
2023/08/13 05:55:30;;;;;;;10.00;5.90;;;17.90;99.90;;;;;;5036045;28;20198;-55
2023/08/13 05:57:56;;;;;;;12.67;5.67;;;18.00;99.90;;;;;;5039399;28;20430;-56
2023/08/13 06:00:22;;;;;;;10.40;6.30;;;18.00;99.90;;;;;;5045045;28;20186;-55
2023/08/13 06:02:47;;;;;;;8.10;5.97;;;18.00;99.90;;;;;;5044940;28;20179;-55
2023/08/13 06:05:13;;;;;;;10.03;6.30;;;18.10;99.90;;;;;;5039407;28;20201;-55
2023/08/13 06:07:38;;;;;;;7.30;5.60;;;18.20;99.90;;;;;;5049843;28;20201;-56
2023/08/13 06:10:05;;;;;;;6.60;5.23;;;18.20;99.90;;;;;;5044274;28;20734;-55
2023/08/13 06:12:31;;;;;;;11.13;5.60;;;18.20;99.90;;;;;;5036029;28;20194;-55
2023/08/13 06:14:58;;;;;;;8.20;5.33;;;18.30;99.90;;;;;;5040885;28;20438;-55
2023/08/13 06:17:24;;;;;;;10.63;6.07;;;18.30;99.90;;;;;;5046580;28;20425;-55
2023/08/13 06:19:49;;;;;;;7.60;6.03;;;18.30;99.90;;;;;;5044709;28;20497;-56
2023/08/13 06:22:15;;;;;;;6.80;5.27;;;18.30;99.90;;;;;;5046999;28;20880;-56
2023/08/13 06:24:40;;;;;;;7.53;5.90;;;18.40;99.90;;;;;;5043461;28;20241;-55
2023/08/13 06:27:06;;;;;;;9.33;6.20;;;18.40;99.90;;;;;;5039882;28;20692;-56
2023/08/13 06:29:32;;;;;;;8.60;5.80;;;18.50;99.90;;;;;;5040188;28;20637;-56
2023/08/13 06:31:57;;;;;;;8.30;5.67;;;18.60;99.90;;;;;;5045670;28;20198;-54
2023/08/13 06:34:23;;;;;;;8.30;6.13;;;18.60;99.90;;;;;;5044486;28;20171;-55
2023/08/13 06:36:49;;;;;;;7.50;5.13;;;18.70;99.90;;;;;;5033955;28;20203;-56
2023/08/13 06:39:14;;;;;;;7.87;5.50;;;18.80;99.90;;;;;;5036291;28;20574;-55
2023/08/13 06:41:40;;;;;;;10.73;6.00;;;18.80;99.90;;;;;;5045808;28;20193;-56
2023/08/13 06:44:06;;;;;;;8.20;6.00;;;19.00;99.90;;;;;;5044565;28;20898;-57
2023/08/13 06:46:32;;;;;;;10.27;5.47;;;19.10;99.90;;;;;;5040799;28;20202;-56
2023/08/13 06:48:58;;;;;;;8.40;6.03;;;19.20;99.90;;;;;;5040434;28;20470;-56
2023/08/13 06:51:23;;;;;;;7.03;5.63;;;19.30;99.90;;;;;;5038202;28;20414;-56
2023/08/13 06:53:49;;;;;;;7.97;5.60;;;19.50;99.90;;;;;;5042933;28;20215;-57
2023/08/13 06:56:14;;;;;;;9.00;5.33;;;19.60;99.90;;;;;;5040107;28;20774;-56
2023/08/13 06:58:40;;;;;;;9.53;7.70;;;19.60;99.90;;;;;;5041158;28;20184;-56
2023/08/13 07:01:06;;;;;;;7.23;4.80;;;19.70;99.90;;;;;;5041096;28;20180;-57
2023/08/13 07:03:31;;;;;;;11.53;6.13;;;19.80;99.90;;;;;;5035786;28;20187;-56
2023/08/13 07:05:57;;;;;;;10.60;5.40;;;19.80;99.90;;;;;;5038278;28;20253;-57
2023/08/13 07:08:23;;;;;;;6.60;4.90;;;19.80;99.90;;;;;;5041648;28;20227;-57
2023/08/13 07:10:50;;;;;;;14.87;6.13;;;19.80;99.90;;;;;;5045646;28;20644;-57
2023/08/13 07:13:15;;;;;;;6.27;5.40;;;19.80;99.90;;;;;;5045916;28;20468;-55
2023/08/13 07:15:41;;;;;;;8.20;5.73;;;19.80;99.90;;;;;;5043370;28;20967;-57
2023/08/13 07:18:07;;;;;;;8.53;5.50;;;19.90;99.90;;;;;;5037348;28;20302;-56
2023/08/13 07:20:33;;;;;;;9.83;5.57;;;19.90;99.90;;;;;;5042504;28;20176;-56
2023/08/13 07:23:00;;;;;;;13.60;5.83;;;19.90;99.90;;;;;;5041766;28;20438;-56
2023/08/13 07:25:26;;;;;;;11.33;5.20;;;20.00;99.90;;;;;;5047095;28;20203;-56
2023/08/13 07:27:53;;;;;;;9.97;5.33;;;20.10;99.90;;;;;;5047126;28;20822;-56
2023/08/13 07:30:19;;;;;;;8.33;5.57;;;20.20;99.90;;;;;;5038102;28;20314;-56
2023/08/13 07:32:45;;;;;;;6.63;5.90;;;20.30;99.90;;;;;;5041252;28;20524;-55
2023/08/13 07:35:12;;;;;;;7.40;5.10;;;20.40;99.90;;;;;;5044550;28;20195;-57
2023/08/13 07:37:38;;;;;;;8.20;5.43;;;20.60;99.90;;;;;;5044571;28;20262;-57
2023/08/13 07:40:07;;;;;;;10.13;5.53;;;20.70;99.90;;;;;;5038927;28;20559;-56
2023/08/13 07:42:36;;;;;;;7.80;6.30;;;20.80;99.90;;;;;;5037817;28;20433;-57
2023/08/13 07:45:05;;;;;;;11.07;5.80;;;21.00;99.90;;;;;;5040556;28;20445;-56
2023/08/13 07:47:31;;;;;;;7.10;5.53;;;21.10;99.90;;;;;;5039839;28;20935;-56
2023/08/13 07:49:57;;;;;;;11.13;5.90;;;21.20;99.90;;;;;;5042912;28;21039;-55
2023/08/13 07:52:22;;;;;;;8.23;5.47;;;21.30;99.90;;;;;;5046230;28;20218;-55
2023/08/13 07:54:48;;;;;;;7.67;5.77;;;21.40;99.90;;;;;;5041207;28;20191;-57
2023/08/13 07:57:13;;;;;;;9.13;5.77;;;21.50;99.90;;;;;;5036480;28;20178;-55
2023/08/13 07:59:39;;;;;;;11.13;6.67;;;21.60;99.90;;;;;;5035723;28;20336;-56
2023/08/13 08:02:05;;;;;;;7.97;5.67;;;21.70;99.90;;;;;;5043193;28;20216;-57
2023/08/13 08:04:31;;;;;;;6.73;5.40;;;21.70;99.90;;;;;;5044013;28;20179;-56
2023/08/13 08:06:57;;;;;;;9.60;6.20;;;21.80;99.90;;;;;;5036850;28;21027;-56
2023/08/13 08:09:23;;;;;;;7.30;5.70;;;21.90;99.90;;;;;;5040505;28;20183;-56
2023/08/13 08:11:49;;;;;;;8.13;5.57;;;22.00;99.90;;;;;;5041812;28;20177;-56
2023/08/13 08:14:14;;;;;;;9.00;6.13;;;22.10;99.90;;;;;;5042071;28;20790;-55
2023/08/13 08:16:40;;;;;;;10.07;6.00;;;22.10;99.90;;;;;;5034303;28;20691;-56
2023/08/13 08:19:06;;;;;;;9.93;5.93;;;22.30;99.90;;;;;;5046130;28;20201;-56
2023/08/13 08:21:31;;;;;;;9.67;5.67;;;22.30;99.90;;;;;;5043421;28;20183;-55
2023/08/13 08:23:57;;;;;;;7.00;5.70;;;22.50;99.90;;;;;;5036315;28;20572;-56
2023/08/13 08:26:23;;;;;;;10.30;6.23;;;22.50;99.90;;;;;;5039404;28;20210;-56
2023/08/13 08:28:49;;;;;;;8.73;5.80;;;22.60;99.90;;;;;;5038961;28;20991;-57
2023/08/13 08:31:14;;;;;;;7.97;5.67;;;22.60;99.90;;;;;;5039328;28;21142;-57
2023/08/13 08:33:40;;;;;;;8.83;6.17;;;22.70;99.90;;;;;;5044128;28;20776;-56
2023/08/13 08:36:05;;;;;;;7.20;5.63;;;22.70;99.90;;;;;;5041984;28;20190;-56
2023/08/13 08:38:31;;;;;;;7.83;5.93;;;22.80;99.90;;;;;;5037695;28;20262;-57
2023/08/13 08:40:59;;;;;;;17.33;6.30;;;22.90;99.90;;;;;;5035679;28;20189;-57
2023/08/13 08:43:29;;;;;;;10.00;6.47;;;23.00;99.90;;;;;;5041695;28;20195;-56
2023/08/13 08:45:57;;;;;;;10.87;5.90;;;23.20;99.90;;;;;;5041084;28;20477;-57
2023/08/13 08:48:28;;;;;;;9.10;5.90;;;23.30;99.90;;;;;;5046589;28;21004;-57
2023/08/13 08:50:53;;;;;;;6.27;5.47;;;23.40;99.90;;;;;;5038874;28;20954;-56
2023/08/13 08:53:21;;;;;;;6.20;5.10;;;23.60;99.90;;;;;;5040831;28;20434;-58
2023/08/13 08:55:48;;;;;;;6.47;5.07;;;23.70;99.90;;;;;;5038163;28;20207;-56
2023/08/13 08:58:14;;;;;;;9.20;5.50;;;23.80;99.90;;;;;;5046120;28;21358;-57
2023/08/13 09:00:40;;;;;;;9.77;5.43;;;23.90;99.90;;;;;;5035870;28;20487;-56
2023/08/13 09:03:06;;;;;;;7.23;5.37;;;24.00;99.90;;;;;;5035459;28;20179;-58
2023/08/13 09:05:36;;;;;;;6.50;5.23;;;24.20;99.90;;;;;;5034378;28;20276;-57
2023/08/13 09:08:10;;;;;;;6.87;4.67;;;24.30;99.90;;;;;;5039042;28;20450;-57
2023/08/13 09:10:36;;;;;;;7.23;5.17;;;24.40;99.90;;;;;;5040436;28;20433;-57
2023/08/13 09:13:02;;;;;;;6.90;5.17;;;24.60;99.90;;;;;;5039881;28;20429;-58
2023/08/13 09:15:27;;;;;;;8.93;4.83;;;24.70;99.90;;;;;;5044314;28;20194;-58
2023/08/13 09:17:53;;;;;;;8.17;5.30;;;24.80;97.80;;;;;;5033005;28;20258;-59
2023/08/13 09:20:20;;;;;;;9.17;4.80;;;24.80;95.40;;;;;;5038043;28;20191;-56
2023/08/13 09:22:47;;;;;;;18.50;6.67;;;24.90;93.20;;;;;;5043323;28;20207;-57
2023/08/13 09:25:14;;;;;;;8.90;5.43;;;24.90;91.90;;;;;;5042156;28;20466;-57
2023/08/13 09:27:41;;;;;;;5.60;4.90;;;25.00;91.20;;;;;;5045802;28;20457;-57
2023/08/13 09:30:12;;;;;;;7.10;5.33;;;25.00;85.50;;;;;;5038881;28;20491;-57
2023/08/13 09:32:38;;;;;;;10.20;5.73;;;24.90;85.30;;;;;;5044154;28;20844;-57
2023/08/13 09:35:04;;;;;;;6.03;4.73;;;24.70;85.90;;;;;;5044329;28;20432;-57
2023/08/13 09:37:30;;;;;;;12.13;5.13;;;24.60;87.40;;;;;;5041091;28;20527;-56
2023/08/13 09:39:56;;;;;;;9.67;6.07;;;24.40;85.90;;;;;;5040719;28;20529;-58
2023/08/13 09:42:23;;;;;;;9.27;5.10;;;24.30;85.50;;;;;;5043298;28;20377;-57
2023/08/13 09:44:51;;;;;;;10.43;5.40;;;24.20;88.20;;;;;;5040165;28;20194;-55
2023/08/13 09:47:20;;;;;;;8.43;5.40;;;24.20;91.10;;;;;;5045255;28;20515;-56
2023/08/13 09:49:46;;;;;;;6.17;4.47;;;24.30;94.20;;;;;;5043850;28;20471;-56
2023/08/13 09:52:16;;;;;;;9.50;4.90;;;24.40;93.50;;;;;;5045017;28;21072;-57
2023/08/13 09:54:47;;;;;;;8.80;5.10;;;24.40;91.10;;;;;;5040995;28;20206;-59
2023/08/13 09:57:15;;;;;;;8.87;5.47;;;24.40;88.30;;;;;;5044319;28;20524;-57
2023/08/13 09:59:41;;;;;;;6.70;5.07;;;24.50;88.00;;;;;;5043665;28;20460;-57
2023/08/13 10:02:08;;;;;;;6.10;4.40;;;24.60;90.20;;;;;;5037846;28;20430;-57
2023/08/13 10:04:38;;;;;;;7.30;4.87;;;24.90;89.30;;;;;;5047690;28;20425;-56
2023/08/13 10:07:05;;;;;;;8.30;5.00;;;25.10;78.60;;;;;;5047876;28;20457;-58
2023/08/13 10:09:31;;;;;;;8.13;5.40;;;25.30;75.10;;;;;;5047130;28;21124;-58
2023/08/13 10:11:57;;;;;;;7.53;5.30;;;25.40;76.70;;;;;;5043113;28;20417;-60
2023/08/13 10:14:23;;;;;;;10.33;4.70;;;25.50;77.50;;;;;;5045699;28;20496;-61
2023/08/13 10:16:49;;;;;;;7.03;5.10;;;25.60;74.60;;;;;;5048033;28;20540;-59
2023/08/13 10:19:19;;;;;;;7.57;5.47;;;25.50;72.80;;;;;;5039608;28;20590;-59
2023/08/13 10:21:56;;;;;;;6.20;4.67;;;25.50;75.30;;;;;;5046075;28;20179;-59
2023/08/13 10:24:22;;;;;;;9.60;4.90;;;25.60;75.50;;;;;;5041716;28;20463;-59
2023/08/13 10:26:48;;;;;;;6.33;4.80;;;25.70;74.00;;;;;;5043679;28;20466;-59
2023/08/13 10:29:18;;;;;;;8.73;4.80;;;26.00;75.60;;;;;;5048252;28;20981;-58
2023/08/13 10:31:59;;;;;;;9.00;4.73;;;26.30;75.40;;;;;;5047720;28;20186;-59
2023/08/13 10:34:47;;;;;;;11.90;5.20;;;26.50;71.90;;;;;;5036706;28;20426;-58
2023/08/13 10:37:15;;;;;;;7.10;4.93;;;26.60;66.70;;;;;;5037188;28;20848;-58
2023/08/13 10:39:42;;;;;;;8.80;4.80;;;26.50;65.70;;;;;;5044353;28;20524;-58
2023/08/13 10:42:26;;;;;;;7.10;5.07;;;26.50;65.80;;;;;;5043697;28;20176;-59
2023/08/13 10:44:53;;;;;;;7.50;4.57;;;26.50;65.30;;;;;;5044022;28;20504;-59
2023/08/13 10:47:20;;;;;;;7.07;4.30;;;26.30;65.80;;;;;;5033721;28;20454;-59
2023/08/13 10:49:46;;;;;;;8.00;4.60;;;26.30;65.40;;;;;;5040351;28;20230;-58
2023/08/13 10:52:13;;;;;;;6.70;4.20;;;26.20;65.00;;;;;;5041707;28;20422;-58
2023/08/13 10:54:39;;;;;;;11.17;4.83;;;26.20;65.80;;;;;;5045602;28;20210;-59
2023/08/13 10:57:05;;;;;;;7.33;4.60;;;26.20;65.80;;;;;;5044411;28;20186;-59
2023/08/13 10:59:35;;;;;;;9.23;5.20;;;26.40;65.40;;;;;;5035480;28;20203;-59
2023/08/13 11:02:19;;;;;;;7.20;4.50;;;26.70;64.90;;;;;;5034609;28;20233;-60
2023/08/13 11:04:46;;;;;;;7.03;4.47;;;27.10;64.70;;;;;;5036049;28;20184;-59
2023/08/13 11:07:14;;;;;;;7.47;4.30;;;27.40;62.40;;;;;;5041355;28;20666;-58
2023/08/13 11:09:42;;;;;;;9.50;5.17;;;27.80;60.00;;;;;;5035993;28;20652;-59
2023/08/13 11:12:09;;;;;;;6.20;4.10;;;28.00;59.60;;;;;;5031518;28;20313;-60
2023/08/13 11:14:35;;;;;;;5.57;3.87;;;28.20;60.60;;;;;;5045556;28;20255;-59
2023/08/13 11:17:01;;;;;;;9.70;4.70;;;28.30;58.10;;;;;;5040193;28;20189;-59
2023/08/13 11:19:27;;;;;;;8.23;4.87;;;28.30;58.40;;;;;;5040841;28;20199;-59
2023/08/13 11:21:54;;;;;;;7.20;4.23;;;28.30;58.50;;;;;;5036619;28;20198;-60
2023/08/13 11:24:21;;;;;;;7.65;4.20;;;28.30;57.70;;;;;;5040928;28;20210;-58
2023/08/13 11:26:49;;;;;;;11.50;4.13;;;28.20;57.50;;;;;;5035550;28;20226;-60
2023/08/13 11:29:18;;;;;;;6.87;4.07;;;28.20;57.60;;;;;;5031847;28;20238;-60
2023/08/13 11:31:47;;;;;;;10.10;5.50;;;28.10;57.60;;;;;;5042304;28;20557;-60
2023/08/13 11:34:15;;;;;;;15.88;4.47;;;28.00;57.80;;;;;;5027229;28;20290;-60
2023/08/13 11:36:45;;;;;;;10.43;4.63;;;27.90;58.90;;;;;;5037082;28;20195;-59
2023/08/13 11:39:12;;;;;;;8.67;4.53;;;28.00;59.10;;;;;;5040716;28;20183;-59
2023/08/13 11:41:38;;;;;;;5.70;4.20;;;28.10;58.40;;;;;;5037956;28;20526;-58
2023/08/13 11:44:05;;;;;;;5.63;4.38;;;28.20;58.30;;;;;;5033360;28;20202;-59
2023/08/13 11:46:53;;;;;;;8.38;4.60;;;28.20;57.70;;;;;;5035400;28;20203;-59
2023/08/13 11:49:19;;;;;;;9.13;5.70;;;28.30;57.90;;;;;;5036440;28;20272;-60
2023/08/13 11:51:44;;;;;;;7.18;4.15;;;28.30;58.20;;;;;;5040075;28;20210;-59
2023/08/13 11:54:10;;;;;;;7.82;5.07;;;28.40;57.00;;;;;;5043183;28;20556;-59
2023/08/13 11:56:38;;;;;;;12.13;4.57;;;28.60;56.90;;;;;;5045272;28;20198;-59
2023/08/13 11:59:05;;;;;;;4.72;4.00;;;28.70;55.50;;;;;;5045480;28;20647;-59
2023/08/13 12:01:33;;;;;;;7.63;4.35;;;28.90;56.20;;;;;;5033785;28;20269;-59
2023/08/13 12:04:02;;;;;;;6.57;4.88;;;29.20;56.30;;;;;;5040508;28;20178;-59
2023/08/13 12:06:27;;;;;;;7.07;4.43;;;29.30;54.20;;;;;;5034554;28;20197;-59
2023/08/13 12:08:53;;;;;;;11.52;5.65;;;29.30;54.10;;;;;;5041884;28;20207;-59
2023/08/13 12:11:19;;;;;;;6.22;5.10;;;29.50;54.00;;;;;;5044586;28;20172;-58
2023/08/13 12:13:47;;;;;;;7.50;4.53;;;29.70;55.30;;;;;;5036868;28;20229;-59
2023/08/13 12:16:13;;;;;;;10.15;4.72;;;30.00;54.50;;;;;;5039592;28;20198;-59
2023/08/13 12:18:39;;;;;;;7.07;4.65;;;30.00;53.00;;;;;;5042158;28;20183;-59
2023/08/13 12:21:05;;;;;;;6.68;5.28;;;30.00;53.60;;;;;;5040501;28;20206;-59
2023/08/13 12:23:31;;;;;;;5.50;4.25;;;29.90;53.70;;;;;;5042506;28;20175;-59
2023/08/13 12:25:57;;;;;;;7.25;4.63;;;30.00;54.20;;;;;;5043454;28;20213;-59
2023/08/13 12:28:22;;;;;;;7.43;4.45;;;30.00;54.20;;;;;;5035374;28;20208;-58
2023/08/13 12:30:48;;;;;;;6.80;5.18;;;29.90;53.70;;;;;;5039346;28;20597;-60
2023/08/13 12:33:13;;;;;;;8.20;5.15;;;29.60;53.70;;;;;;5046229;28;20640;-58
2023/08/13 12:35:39;;;;;;;6.95;4.53;;;29.40;54.70;;;;;;5035844;28;20198;-59
2023/08/13 12:38:04;;;;;;;5.93;4.80;;;29.20;55.30;;;;;;5033802;28;20178;-59
2023/08/13 12:40:30;;;;;;;11.45;4.70;;;29.00;55.40;;;;;;5037064;28;20179;-59
2023/08/13 12:42:56;;;;;;;11.20;5.07;;;28.80;56.50;;;;;;5038233;28;20674;-60